createdAt,value
2023-05-19T00:00:15.694Z,6.50
2023-05-19T00:02:46.994Z,5.72
2023-05-19T00:05:18.700Z,5.32
2023-05-19T00:07:48.360Z,5.93
2023-05-19T00:10:17.478Z,5.80
2023-05-19T00:12:45.883Z,6.05
2023-05-19T00:15:14.549Z,4.63
2023-05-19T00:17:43.410Z,4.63
2023-05-19T00:20:12.504Z,4.95
2023-05-19T00:22:40.777Z,6.07
2023-05-19T00:25:09.565Z,6.13
2023-05-19T00:27:37.848Z,5.43
2023-05-19T00:30:06.751Z,6.00
2023-05-19T00:32:36.341Z,6.63
2023-05-19T00:35:05.856Z,5.40
2023-05-19T00:37:34.663Z,5.35
2023-05-19T00:40:02.914Z,6.22
2023-05-19T00:42:32.932Z,6.10
2023-05-19T00:45:01.465Z,5.20
2023-05-19T00:47:34.200Z,5.35
2023-05-19T00:50:03.348Z,5.93
2023-05-19T00:52:32.107Z,4.72
2023-05-19T00:55:00.613Z,5.32
2023-05-19T00:57:29.214Z,5.45
2023-05-19T00:59:57.519Z,5.20
2023-05-19T01:02:25.765Z,5.80
2023-05-19T01:04:56.397Z,5.78
2023-05-19T01:07:25.859Z,6.00
2023-05-19T01:09:54.603Z,5.35
2023-05-19T01:12:22.831Z,5.93
2023-05-19T01:14:51.318Z,5.97
2023-05-19T01:17:36.637Z,5.72
2023-05-19T01:20:22.960Z,6.43
2023-05-19T01:22:57.706Z,6.53
2023-05-19T01:25:43.539Z,7.22
2023-05-19T01:28:49.583Z,6.53
2023-05-19T01:31:23.903Z,7.00
2023-05-19T01:33:54.694Z,6.88
2023-05-19T01:36:24.468Z,6.55
2023-05-19T01:38:56.951Z,6.50
2023-05-19T01:41:26.414Z,6.68
2023-05-19T01:43:54.828Z,6.55
2023-05-19T01:46:25.368Z,6.63
2023-05-19T01:48:54.943Z,7.55
2023-05-19T01:51:23.547Z,6.63
2023-05-19T01:53:52.547Z,7.82
2023-05-19T01:56:38.345Z,6.50
2023-05-19T01:59:36.697Z,6.20
2023-05-19T02:02:33.575Z,7.38
2023-05-19T02:05:28.843Z,5.18
2023-05-19T02:08:31.929Z,5.22
2023-05-19T02:11:05.406Z,5.30
2023-05-19T02:13:39.609Z,5.65
2023-05-19T02:16:11.261Z,6.00
2023-05-19T02:18:45.654Z,6.38
2023-05-19T02:21:14.118Z,6.43
2023-05-19T02:23:43.134Z,5.97
2023-05-19T02:26:11.737Z,6.35
2023-05-19T02:28:39.894Z,6.15
2023-05-19T02:31:10.250Z,6.88
2023-05-19T02:33:38.330Z,5.38
2023-05-19T02:36:07.769Z,5.35
2023-05-19T02:38:36.955Z,4.95
2023-05-19T02:41:05.484Z,4.70
2023-05-19T02:43:33.624Z,4.20
2023-05-19T02:46:01.648Z,4.60
2023-05-19T02:48:30.479Z,4.13
2023-05-19T02:50:58.943Z,4.30
2023-05-19T02:53:27.469Z,3.88
2023-05-19T02:56:15.619Z,3.70
2023-05-19T02:58:43.884Z,4.07
2023-05-19T03:01:12.667Z,5.07
2023-05-19T03:03:41.681Z,3.90
2023-05-19T03:06:10.240Z,3.83
2023-05-19T03:08:40.772Z,3.88
2023-05-19T03:11:10.649Z,4.22
2023-05-19T03:13:39.371Z,4.45
2023-05-19T03:16:08.555Z,3.67
2023-05-19T03:18:38.653Z,4.10
2023-05-19T03:21:06.729Z,4.47
2023-05-19T03:23:35.252Z,4.60
2023-05-19T03:26:03.522Z,4.65
2023-05-19T03:28:31.691Z,5.05
2023-05-19T03:31:00.767Z,4.78
2023-05-19T03:33:34.374Z,4.93
2023-05-19T03:36:04.214Z,4.88
2023-05-19T03:38:36.179Z,4.38
2023-05-19T03:41:05.155Z,4.95
2023-05-19T03:43:33.843Z,5.07
2023-05-19T03:46:05.501Z,4.93
2023-05-19T03:49:00.197Z,4.38
2023-05-19T03:51:47.663Z,4.63
2023-05-19T03:54:27.789Z,4.63
2023-05-19T03:56:56.198Z,3.30
2023-05-19T03:59:25.487Z,3.95
2023-05-19T04:01:54.753Z,4.63
2023-05-19T04:04:23.538Z,3.50
2023-05-19T04:06:52.373Z,4.00
2023-05-19T04:09:24.037Z,4.20
2023-05-19T04:11:53.166Z,4.00
2023-05-19T04:14:21.822Z,4.45
2023-05-19T04:16:50.227Z,4.28
2023-05-19T04:19:19.052Z,4.00
2023-05-19T04:21:47.152Z,4.43
2023-05-19T04:24:15.455Z,4.22
2023-05-19T04:26:46.527Z,4.97
2023-05-19T04:29:18.692Z,5.22
2023-05-19T04:31:47.706Z,4.10
2023-05-19T04:34:20.089Z,4.72
2023-05-19T04:36:51.654Z,3.63
2023-05-19T04:39:23.060Z,3.63
2023-05-19T04:41:54.256Z,3.92
2023-05-19T04:44:23.679Z,3.85
2023-05-19T04:46:54.634Z,4.25
2023-05-19T04:49:25.662Z,3.85
2023-05-19T04:51:55.805Z,4.07
2023-05-19T04:54:28.738Z,4.70
2023-05-19T04:56:57.516Z,5.82
2023-05-19T04:59:28.830Z,4.15
2023-05-19T05:01:58.245Z,4.22
2023-05-19T05:04:28.804Z,3.65
2023-05-19T05:06:57.815Z,3.70
2023-05-19T05:09:27.410Z,3.70
2023-05-19T05:11:57.440Z,4.20
2023-05-19T05:14:27.194Z,4.00
2023-05-19T05:16:56.991Z,3.75
2023-05-19T05:19:26.730Z,4.32
2023-05-19T05:21:56.332Z,4.53
2023-05-19T05:24:25.291Z,4.43
2023-05-19T05:26:57.195Z,4.93
2023-05-19T05:29:26.732Z,4.50
2023-05-19T05:31:55.579Z,5.07
2023-05-19T05:34:25.281Z,4.53
2023-05-19T05:36:54.034Z,3.78
2023-05-19T05:39:23.218Z,3.97
2023-05-19T05:41:51.690Z,5.63
2023-05-19T05:44:21.221Z,4.88
2023-05-19T05:46:49.620Z,5.25
2023-05-19T05:49:19.136Z,4.72
2023-05-19T05:52:01.930Z,5.07
2023-05-19T05:54:37.593Z,5.90
2023-05-19T05:57:06.416Z,5.53
2023-05-19T05:59:34.999Z,4.75
2023-05-19T06:02:03.940Z,4.93
2023-05-19T06:04:32.557Z,3.95
2023-05-19T06:07:02.010Z,4.43
2023-05-19T06:09:35.728Z,3.80
2023-05-19T06:12:06.549Z,4.00
2023-05-19T06:14:40.448Z,3.80
2023-05-19T06:17:37.866Z,2.85
2023-05-19T06:20:08.739Z,2.78
2023-05-19T06:22:37.877Z,3.35
2023-05-19T06:25:09.217Z,3.00
2023-05-19T06:27:38.061Z,2.92
2023-05-19T06:30:08.791Z,2.67
2023-05-19T06:32:50.182Z,3.90
2023-05-19T06:35:18.400Z,2.97
2023-05-19T06:37:46.913Z,2.90
2023-05-19T06:40:15.509Z,2.78
2023-05-19T06:42:45.362Z,2.95
2023-05-19T06:45:22.563Z,2.90
2023-05-19T06:47:54.596Z,3.17
2023-05-19T06:50:24.128Z,2.63
2023-05-19T06:52:53.423Z,4.32
2023-05-19T06:55:22.159Z,3.83
2023-05-19T06:57:50.822Z,2.78
2023-05-19T07:00:23.973Z,2.72
2023-05-19T07:02:54.951Z,2.40
2023-05-19T07:05:23.716Z,2.63
2023-05-19T07:10:29.117Z,3.30
2023-05-19T07:12:58.591Z,4.05
2023-05-19T07:15:31.012Z,3.42
2023-05-19T07:18:00.924Z,3.17
2023-05-19T07:20:30.793Z,3.42
2023-05-19T07:22:59.735Z,4.32
2023-05-19T07:25:30.493Z,3.13
2023-05-19T07:27:59.915Z,3.47
2023-05-19T07:30:29.971Z,2.90
2023-05-19T07:32:58.693Z,2.67
2023-05-19T07:35:27.343Z,3.20
2023-05-19T07:37:55.589Z,2.85
2023-05-19T07:40:24.245Z,3.17
2023-05-19T07:42:53.742Z,2.83
2023-05-19T07:45:22.323Z,3.30
2023-05-19T07:47:50.966Z,2.90
2023-05-19T07:50:19.814Z,3.88
2023-05-19T07:52:48.580Z,3.05
2023-05-19T07:55:18.157Z,3.05
2023-05-19T07:57:47.372Z,3.35
2023-05-19T08:00:16.232Z,3.33
2023-05-19T08:02:45.620Z,2.60
2023-05-19T08:05:14.496Z,3.33
2023-05-19T08:07:43.670Z,4.68
2023-05-19T08:10:13.102Z,2.75
2023-05-19T08:12:41.383Z,2.88
2023-05-19T08:15:13.235Z,2.50
2023-05-19T08:17:42.123Z,2.90
2023-05-19T08:20:12.679Z,2.85
2023-05-19T08:22:41.410Z,3.10
2023-05-19T08:25:10.605Z,3.35
2023-05-19T08:27:39.325Z,3.67
2023-05-19T08:30:08.846Z,2.92
2023-05-19T08:32:37.446Z,3.17
2023-05-19T08:35:06.166Z,2.00
2023-05-19T08:37:37.161Z,1.90
2023-05-19T08:40:07.271Z,1.80
2023-05-19T08:42:35.589Z,1.90
2023-05-19T08:45:04.557Z,1.70
2023-05-19T08:47:36.029Z,1.92
2023-05-19T08:50:08.109Z,1.65
2023-05-19T08:52:57.896Z,1.80
2023-05-19T08:55:35.045Z,2.42
2023-05-19T08:58:05.028Z,1.98
2023-05-19T09:00:34.844Z,2.08
2023-05-19T09:03:17.354Z,2.20
2023-05-19T09:05:48.744Z,2.15
2023-05-19T09:08:16.988Z,1.58
2023-05-19T09:10:46.499Z,2.03
2023-05-19T09:13:15.984Z,2.10
2023-05-19T09:15:45.722Z,1.85
2023-05-19T09:18:17.452Z,2.10
2023-05-19T09:20:47.594Z,2.25
2023-05-19T09:23:18.557Z,2.40
2023-05-19T09:25:54.058Z,2.22
2023-05-19T09:28:31.700Z,2.25
2023-05-19T09:31:04.000Z,2.20
2023-05-19T09:33:34.623Z,2.35
2023-05-19T09:36:06.305Z,2.30
2023-05-19T09:38:36.095Z,1.92
2023-05-19T09:41:06.450Z,1.92
2023-05-19T09:43:35.738Z,2.17
2023-05-19T09:46:08.119Z,2.10
2023-05-19T09:48:38.843Z,1.92
2023-05-19T09:51:11.085Z,1.73
2023-05-19T09:53:40.030Z,1.83
2023-05-19T09:56:15.706Z,1.83
2023-05-19T09:58:44.141Z,2.63
2023-05-19T10:01:13.378Z,2.17
2023-05-19T10:03:42.609Z,2.45
2023-05-19T10:06:12.183Z,2.00
2023-05-19T10:08:43.811Z,2.35
2023-05-19T10:11:12.716Z,2.22
2023-05-19T10:13:42.141Z,2.05
2023-05-19T10:16:11.209Z,2.42
2023-05-19T10:18:41.462Z,2.25
2023-05-19T10:21:11.312Z,1.90
2023-05-19T10:23:39.939Z,2.05
2023-05-19T10:26:11.536Z,1.73
2023-05-19T10:28:43.424Z,1.75
2023-05-19T10:31:16.412Z,2.10
2023-05-19T10:34:10.509Z,1.92
2023-05-19T10:36:41.773Z,2.10
2023-05-19T10:39:38.023Z,2.33
2023-05-19T10:42:16.358Z,1.90
2023-05-19T10:45:27.758Z,2.03
2023-05-19T10:47:57.025Z,2.40
2023-05-19T10:50:26.981Z,2.00
2023-05-19T10:52:56.795Z,2.45
2023-05-19T10:55:59.286Z,1.83
2023-05-19T10:58:43.763Z,2.33
2023-05-19T11:01:25.221Z,2.53
2023-05-19T11:03:57.562Z,2.15
2023-05-19T11:06:32.664Z,1.80
2023-05-19T11:09:12.995Z,2.30
2023-05-19T11:11:48.075Z,2.65
2023-05-19T11:14:23.290Z,1.83
2023-05-19T11:16:53.030Z,2.08
2023-05-19T11:19:35.622Z,2.03
2023-05-19T11:22:12.668Z,2.10
2023-05-19T11:24:45.975Z,1.90
2023-05-19T11:27:33.484Z,2.70
2023-05-19T11:30:16.255Z,2.00
2023-05-19T11:35:14.891Z,2.20
2023-05-19T11:37:43.818Z,1.98
2023-05-19T11:40:15.847Z,2.10
2023-05-19T11:42:45.628Z,2.17
2023-05-19T11:45:14.433Z,2.40
2023-05-19T11:48:00.833Z,2.00
2023-05-19T11:50:32.639Z,1.90
2023-05-19T11:53:02.582Z,2.20
2023-05-19T11:55:32.473Z,2.10
2023-05-19T11:58:05.876Z,2.42
2023-05-19T12:00:40.457Z,2.00
2023-05-19T12:03:10.573Z,2.05
2023-05-19T12:05:47.406Z,2.00
2023-05-19T12:08:19.164Z,2.10
2023-05-19T12:10:53.243Z,2.67
2023-05-19T12:13:23.204Z,2.63
2023-05-19T12:15:52.919Z,2.03
2023-05-19T12:18:21.783Z,2.30
2023-05-19T12:20:51.186Z,2.35
2023-05-19T12:23:19.755Z,2.58
2023-05-19T12:25:49.237Z,2.00
2023-05-19T12:28:17.983Z,2.50
2023-05-19T12:30:52.550Z,3.08
2023-05-19T12:33:23.008Z,2.20
2023-05-19T12:35:52.421Z,2.25
2023-05-19T12:38:21.263Z,2.30
2023-05-19T12:40:50.577Z,2.50
2023-05-19T12:43:22.896Z,2.40
2023-05-19T12:45:51.319Z,3.17
2023-05-19T12:48:23.829Z,3.20
2023-05-19T12:53:22.542Z,2.58
2023-05-19T12:55:53.306Z,2.42
2023-05-19T12:58:22.952Z,2.28
2023-05-19T13:00:52.977Z,2.47
2023-05-19T13:03:22.397Z,3.08
2023-05-19T13:05:52.417Z,2.33
2023-05-19T13:08:28.157Z,2.67
2023-05-19T13:10:57.074Z,2.15
2023-05-19T13:13:43.785Z,2.70
2023-05-19T13:16:35.175Z,2.38
2023-05-19T13:19:25.683Z,2.60
2023-05-19T13:21:54.946Z,2.33
2023-05-19T13:24:23.710Z,3.20
2023-05-19T13:26:53.900Z,2.88
2023-05-19T13:29:22.815Z,2.35
2023-05-19T13:31:51.540Z,2.30
2023-05-19T13:34:20.762Z,2.15
2023-05-19T13:36:49.329Z,3.00
2023-05-19T13:39:17.603Z,2.47
2023-05-19T13:41:46.899Z,2.00
2023-05-19T13:44:16.908Z,2.30
2023-05-19T13:46:46.994Z,2.67
2023-05-19T13:49:17.191Z,2.33
2023-05-19T13:51:46.244Z,2.30
2023-05-19T13:54:14.641Z,2.67
2023-05-19T13:56:46.379Z,2.38
2023-05-19T13:59:15.834Z,2.80
2023-05-19T14:01:45.704Z,2.30
2023-05-19T14:04:14.972Z,2.30
2023-05-19T14:06:44.142Z,2.92
2023-05-19T14:09:13.322Z,2.33
2023-05-19T14:11:42.069Z,2.10
2023-05-19T14:14:11.507Z,2.60
2023-05-19T14:16:41.525Z,2.35
2023-05-19T14:19:10.906Z,2.58
2023-05-19T14:21:39.988Z,2.10
2023-05-19T14:24:08.748Z,2.58
2023-05-19T14:26:36.890Z,2.45
2023-05-19T14:29:06.343Z,2.67
2023-05-19T14:31:34.704Z,2.20
2023-05-19T14:34:03.757Z,2.63
2023-05-19T14:36:35.358Z,2.47
2023-05-19T14:39:04.374Z,2.87
2023-05-19T14:41:32.889Z,2.92
2023-05-19T14:44:01.873Z,2.63
2023-05-19T14:46:31.206Z,2.97
2023-05-19T14:48:59.561Z,2.50
2023-05-19T14:51:28.693Z,2.63
2023-05-19T14:53:57.369Z,2.25
2023-05-19T14:56:26.370Z,2.70
2023-05-19T14:58:55.058Z,2.50
2023-05-19T15:01:23.941Z,2.70
2023-05-19T15:03:52.773Z,2.92
2023-05-19T15:06:22.295Z,2.88
2023-05-19T15:08:51.381Z,3.22
2023-05-19T15:11:20.121Z,2.63
2023-05-19T15:13:48.921Z,2.65
2023-05-19T15:16:18.528Z,3.05
2023-05-19T15:18:47.564Z,2.90
2023-05-19T15:21:15.722Z,3.08
2023-05-19T15:23:44.072Z,2.78
2023-05-19T15:26:13.908Z,3.58
2023-05-19T15:28:42.330Z,3.15
2023-05-19T15:31:11.135Z,3.92
2023-05-19T15:33:40.508Z,2.88
2023-05-19T15:36:09.098Z,3.33
2023-05-19T15:38:37.727Z,3.58
2023-05-19T15:41:09.444Z,4.35
2023-05-19T15:43:39.151Z,3.05
2023-05-19T15:46:07.471Z,3.13
2023-05-19T15:48:35.972Z,3.38
2023-05-19T15:51:05.396Z,3.92
2023-05-19T15:53:34.209Z,3.83
2023-05-19T15:56:04.738Z,4.05
2023-05-19T15:58:33.601Z,3.83
2023-05-19T16:01:03.370Z,5.03
2023-05-19T16:03:33.116Z,3.92
2023-05-19T16:06:01.812Z,4.20
2023-05-19T16:08:30.782Z,4.60
2023-05-19T16:10:59.170Z,4.32
2023-05-19T16:13:30.485Z,4.07
2023-05-19T16:15:59.165Z,4.68
2023-05-19T16:18:29.191Z,4.18
2023-05-19T16:20:58.541Z,4.95
2023-05-19T16:23:27.853Z,4.47
2023-05-19T16:25:57.848Z,4.25
2023-05-19T16:28:28.061Z,3.63
2023-05-19T16:31:00.603Z,3.85
2023-05-19T16:33:30.213Z,3.80
2023-05-19T16:36:00.112Z,4.35
2023-05-19T16:38:28.509Z,3.78
2023-05-19T16:40:57.104Z,5.35
2023-05-19T16:43:26.402Z,6.13
2023-05-19T16:45:55.533Z,6.43
2023-05-19T16:48:23.701Z,5.97
2023-05-19T16:50:52.394Z,5.15
2023-05-19T16:53:21.304Z,5.85
2023-05-19T16:55:49.974Z,5.40
2023-05-19T16:58:18.950Z,5.07
2023-05-19T17:00:52.140Z,5.30
2023-05-19T17:03:21.627Z,5.53
2023-05-19T17:05:49.992Z,5.80
2023-05-19T17:08:19.046Z,6.15
2023-05-19T17:10:48.662Z,5.90
2023-05-19T17:13:17.436Z,7.03
2023-05-19T17:15:46.554Z,5.97
2023-05-19T17:18:16.183Z,4.30
2023-05-19T17:20:45.178Z,4.13
2023-05-19T17:23:14.445Z,4.80
2023-05-19T17:25:43.417Z,11.65
2023-05-19T17:28:12.214Z,8.45
2023-05-19T17:30:41.880Z,5.32
2023-05-19T17:33:10.624Z,4.53
2023-05-19T17:35:41.289Z,3.70
2023-05-19T17:38:09.602Z,4.40
2023-05-19T17:40:40.734Z,4.18
2023-05-19T17:43:11.022Z,4.40
2023-05-19T17:45:39.282Z,4.35
2023-05-19T17:48:08.587Z,3.67
2023-05-19T17:50:37.360Z,4.35
2023-05-19T17:53:06.438Z,4.22
2023-05-19T17:55:35.290Z,4.60
2023-05-19T17:58:28.540Z,19.33
2023-05-19T18:00:57.333Z,7.22
2023-05-19T18:03:26.808Z,7.15
2023-05-19T18:05:56.013Z,6.25
2023-05-19T18:08:24.627Z,6.18
2023-05-19T18:10:55.410Z,8.02
2023-05-19T18:13:24.308Z,7.80
2023-05-19T18:15:53.044Z,7.22
2023-05-19T18:18:22.185Z,8.50
2023-05-19T18:20:51.025Z,6.97
2023-05-19T18:23:20.555Z,7.57
2023-05-19T18:25:51.821Z,7.75
2023-05-19T18:28:20.587Z,5.85
2023-05-19T18:31:01.461Z,5.90
2023-05-19T18:33:31.352Z,7.05
2023-05-19T18:36:00.180Z,7.93
2023-05-19T18:38:29.197Z,8.25
2023-05-19T18:40:58.014Z,7.22
2023-05-19T18:43:27.362Z,7.57
2023-05-19T18:45:57.134Z,7.22
2023-05-19T18:48:26.361Z,7.25
2023-05-19T18:50:55.409Z,6.18
2023-05-19T18:53:23.970Z,5.97
2023-05-19T18:55:52.239Z,6.07
2023-05-19T18:58:20.822Z,5.55
2023-05-19T19:00:50.757Z,6.05
2023-05-19T19:03:19.320Z,6.43
2023-05-19T19:05:57.611Z,6.30
2023-05-19T19:08:27.146Z,7.00
2023-05-19T19:10:59.681Z,5.68
2023-05-19T19:13:29.406Z,5.72
2023-05-19T19:15:58.213Z,5.18
2023-05-19T19:18:27.283Z,5.60
2023-05-19T19:21:06.098Z,5.57
2023-05-19T19:23:35.079Z,6.15
2023-05-19T19:26:03.828Z,4.70
2023-05-19T19:28:32.815Z,5.50
2023-05-19T19:31:01.900Z,4.95
2023-05-19T19:33:30.861Z,6.60
2023-05-19T19:35:59.020Z,6.55
2023-05-19T19:38:27.974Z,6.47
2023-05-19T19:40:56.512Z,6.43
2023-05-19T19:43:25.331Z,6.97
2023-05-19T19:46:01.407Z,7.65
2023-05-19T19:48:31.028Z,9.50
2023-05-19T19:50:59.233Z,9.45
2023-05-19T19:53:28.050Z,7.18
2023-05-19T19:56:01.018Z,7.28
2023-05-19T19:58:30.343Z,6.15
2023-05-19T20:01:01.419Z,6.35
2023-05-19T20:03:31.992Z,7.30
2023-05-19T20:06:01.293Z,6.82
2023-05-19T20:08:29.990Z,7.22
2023-05-19T20:10:59.188Z,7.53
2023-05-19T20:13:27.722Z,9.05
2023-05-19T20:15:56.320Z,7.43
2023-05-19T20:18:26.050Z,7.88
2023-05-19T20:20:54.211Z,8.60
2023-05-19T20:23:22.790Z,7.80
2023-05-19T20:26:10.156Z,8.30
2023-05-19T20:28:40.337Z,7.70
2023-05-19T20:31:09.806Z,6.55
2023-05-19T20:33:39.120Z,7.07
2023-05-19T20:36:08.309Z,7.00
2023-05-19T20:38:36.556Z,6.88
2023-05-19T20:41:04.855Z,7.32
2023-05-19T20:43:34.322Z,6.15
2023-05-19T20:46:04.220Z,5.95
2023-05-19T20:48:32.949Z,6.63
2023-05-19T20:51:01.648Z,6.95
2023-05-19T20:53:30.758Z,5.88
2023-05-19T20:55:59.286Z,5.57
2023-05-19T20:58:30.384Z,5.53
2023-05-19T21:00:59.486Z,5.47
2023-05-19T21:03:28.881Z,5.03
2023-05-19T21:05:57.534Z,5.90
2023-05-19T21:08:26.101Z,4.88
2023-05-19T21:10:54.733Z,4.68
2023-05-19T21:13:23.386Z,5.05
2023-05-19T21:15:52.070Z,3.97
2023-05-19T21:18:20.207Z,5.20
2023-05-19T21:20:48.408Z,5.90
2023-05-19T21:23:16.920Z,6.43
2023-05-19T21:25:45.885Z,6.50
2023-05-19T21:28:14.453Z,5.13
2023-05-19T21:30:47.641Z,4.78
2023-05-19T21:33:16.211Z,5.50
2023-05-19T21:35:46.123Z,4.68
2023-05-19T21:38:23.335Z,5.35
2023-05-19T21:40:53.208Z,5.15
2023-05-19T21:43:22.549Z,5.00
2023-05-19T21:45:51.628Z,4.45
2023-05-19T21:48:20.427Z,4.30
2023-05-19T21:50:56.276Z,4.30
2023-05-19T21:53:24.780Z,4.43
2023-05-19T21:55:53.170Z,4.72
2023-05-19T21:58:21.892Z,4.53
2023-05-19T22:00:51.572Z,5.55
2023-05-19T22:03:20.359Z,4.70
2023-05-19T22:05:50.409Z,4.07
2023-05-19T22:08:20.251Z,4.65
2023-05-19T22:10:52.764Z,4.93
2023-05-19T22:13:21.811Z,4.18
2023-05-19T22:15:51.047Z,4.35
2023-05-19T22:18:20.264Z,4.78
2023-05-19T22:20:48.760Z,4.03
2023-05-19T22:23:17.129Z,4.70
2023-05-19T22:25:46.073Z,5.85
2023-05-19T22:28:14.827Z,5.03
2023-05-19T22:30:43.029Z,4.57
2023-05-19T22:33:13.387Z,4.10
2023-05-19T22:35:42.754Z,3.78
2023-05-19T22:38:11.892Z,4.40
2023-05-19T22:40:40.120Z,3.90
2023-05-19T22:43:08.352Z,4.00
2023-05-19T22:45:37.374Z,3.60
2023-05-19T22:48:07.084Z,5.13
2023-05-19T22:50:35.190Z,3.90
2023-05-19T22:53:03.293Z,4.43
2023-05-19T22:55:31.860Z,3.92
2023-05-19T22:58:00.340Z,4.50
2023-05-19T23:00:29.354Z,4.03
2023-05-19T23:02:58.530Z,4.53
2023-05-19T23:05:26.709Z,4.43
2023-05-19T23:07:55.009Z,4.60
2023-05-19T23:10:23.164Z,4.90
2023-05-19T23:12:51.809Z,4.40
2023-05-19T23:15:21.059Z,6.70
2023-05-19T23:17:49.266Z,5.85
2023-05-19T23:20:17.936Z,5.05
2023-05-19T23:22:46.952Z,4.90
2023-05-19T23:25:15.746Z,5.15
2023-05-19T23:27:43.865Z,5.72
2023-05-19T23:30:13.002Z,4.88
2023-05-19T23:32:41.290Z,4.85
2023-05-19T23:35:14.193Z,5.25
2023-05-19T23:37:42.583Z,4.75
2023-05-19T23:40:12.091Z,4.85
2023-05-19T23:42:41.124Z,4.30
2023-05-19T23:45:10.367Z,5.07
2023-05-19T23:47:39.011Z,4.25
2023-05-19T23:50:10.805Z,4.40
2023-05-19T23:52:39.329Z,4.45
2023-05-19T23:55:08.272Z,3.92
2023-05-19T23:57:37.270Z,4.18
